createdAt,value
2017-09-15T00:01:20.940Z,94.30
2017-09-15T00:03:48.042Z,94.30
2017-09-15T00:06:14.419Z,94.30
2017-09-15T00:08:41.546Z,94.30
2017-09-15T00:11:07.909Z,94.30
2017-09-15T00:13:34.606Z,94.20
2017-09-15T00:16:00.943Z,94.10
2017-09-15T00:18:27.330Z,93.90
2017-09-15T00:20:53.681Z,93.50
2017-09-15T00:23:20.091Z,93.90
2017-09-15T00:25:46.540Z,94.00
2017-09-15T00:28:12.871Z,93.90
2017-09-15T00:30:39.300Z,93.80
2017-09-15T00:33:05.662Z,93.60
2017-09-15T00:35:33.096Z,93.90
2017-09-15T00:37:59.448Z,93.90
2017-09-15T00:40:26.591Z,93.50
2017-09-15T00:42:53.762Z,93.60
2017-09-15T00:45:20.110Z,93.50
2017-09-15T00:47:46.501Z,93.70
2017-09-15T00:50:13.663Z,94.30
2017-09-15T00:52:40.812Z,93.90
2017-09-15T00:55:07.186Z,93.90
2017-09-15T00:57:33.575Z,93.90
2017-09-15T00:59:59.928Z,93.90
2017-09-15T01:02:26.290Z,93.80
2017-09-15T01:04:52.687Z,93.70
2017-09-15T01:07:19.007Z,93.70
2017-09-15T01:09:45.386Z,93.50
2017-09-15T01:12:11.802Z,93.50
2017-09-15T01:14:38.181Z,93.50
2017-09-15T01:17:04.904Z,93.30
2017-09-15T01:19:31.287Z,93.20
2017-09-15T01:21:57.641Z,93.30
2017-09-15T01:24:23.988Z,93.20
2017-09-15T01:26:51.084Z,93.30
2017-09-15T01:29:17.445Z,93.30
2017-09-15T01:31:43.796Z,93.10
2017-09-15T01:34:11.224Z,93.10
2017-09-15T01:36:37.572Z,93.10
2017-09-15T01:39:03.997Z,93.00
2017-09-15T01:41:30.366Z,92.90
2017-09-15T01:43:56.696Z,93.10
2017-09-15T01:46:23.112Z,93.20
2017-09-15T01:48:49.509Z,93.10
2017-09-15T01:51:16.652Z,93.20
2017-09-15T01:53:43.026Z,93.20
2017-09-15T01:56:09.644Z,93.30
2017-09-15T01:58:36.735Z,93.30
2017-09-15T02:01:03.095Z,93.30
2017-09-15T02:03:29.499Z,93.10
2017-09-15T02:05:55.835Z,93.10
2017-09-15T02:08:22.263Z,93.20
2017-09-15T02:10:48.595Z,93.00
2017-09-15T02:13:14.988Z,92.90
2017-09-15T02:15:41.383Z,92.90
2017-09-15T02:18:08.009Z,92.90
2017-09-15T02:20:34.373Z,93.20
2017-09-15T02:23:01.462Z,93.00
2017-09-15T02:25:27.856Z,93.00
2017-09-15T02:27:54.212Z,93.00
2017-09-15T02:30:20.585Z,92.90
2017-09-15T02:32:46.940Z,93.00
2017-09-15T02:35:14.322Z,92.80
2017-09-15T02:37:40.671Z,92.80
2017-09-15T02:40:07.028Z,92.80
2017-09-15T02:42:33.418Z,93.00
2017-09-15T02:44:59.767Z,93.00
2017-09-15T02:47:26.151Z,93.10
2017-09-15T02:49:52.547Z,93.20
2017-09-15T02:52:19.198Z,93.60
2017-09-15T02:54:46.260Z,97.60
2017-09-15T02:57:12.594Z,97.30
2017-09-15T02:59:38.942Z,96.00
2017-09-15T03:02:05.318Z,95.10
2017-09-15T03:04:32.448Z,93.60
2017-09-15T03:06:58.796Z,93.50
2017-09-15T03:09:25.170Z,93.60
2017-09-15T03:11:51.540Z,95.10
2017-09-15T03:14:17.906Z,95.70
2017-09-15T03:16:45.006Z,94.50
2017-09-15T03:19:11.370Z,94.50
2017-09-15T03:21:37.750Z,94.30
2017-09-15T03:24:04.116Z,93.80
2017-09-15T03:26:30.874Z,91.30
2017-09-15T03:28:57.943Z,90.10
2017-09-15T03:31:24.311Z,90.00
2017-09-15T03:33:50.654Z,90.70
2017-09-15T03:36:16.986Z,91.00
2017-09-15T03:38:44.101Z,92.00
2017-09-15T03:41:10.466Z,91.70
2017-09-15T03:43:37.206Z,92.10
2017-09-15T03:46:03.573Z,92.50
2017-09-15T03:48:29.985Z,92.70
2017-09-15T03:50:57.094Z,93.30
2017-09-15T03:53:23.444Z,93.30
2017-09-15T03:55:50.586Z,93.70
2017-09-15T03:58:16.980Z,93.70
2017-09-15T04:00:43.656Z,93.90
2017-09-15T04:03:09.999Z,93.90
2017-09-15T04:05:37.097Z,94.10
2017-09-15T04:08:03.437Z,94.10
2017-09-15T04:10:29.848Z,94.20
2017-09-15T04:12:56.230Z,94.20
2017-09-15T04:15:22.579Z,94.30
2017-09-15T04:17:49.673Z,94.60
2017-09-15T04:20:16.024Z,94.60
2017-09-15T04:22:42.676Z,94.60
2017-09-15T04:25:09.788Z,94.90
2017-09-15T04:27:36.138Z,94.80
2017-09-15T04:30:02.527Z,94.90
2017-09-15T04:32:28.854Z,95.10
2017-09-15T04:34:55.204Z,95.10
2017-09-15T04:37:21.542Z,95.20
2017-09-15T04:39:47.940Z,95.40
2017-09-15T04:42:14.273Z,95.80
2017-09-15T04:44:40.943Z,95.60
2017-09-15T04:47:07.338Z,95.60
2017-09-15T04:49:33.730Z,95.70
2017-09-15T04:52:00.823Z,97.70
2017-09-15T04:54:27.241Z,97.70
2017-09-15T04:56:53.607Z,97.90
2017-09-15T04:59:19.935Z,97.30
2017-09-15T05:01:46.353Z,97.30
2017-09-15T05:04:12.719Z,96.60
2017-09-15T05:06:40.167Z,94.30
2017-09-15T05:09:07.283Z,94.80
2017-09-15T05:11:33.633Z,94.80
2017-09-15T05:13:59.992Z,94.00
2017-09-15T05:16:27.095Z,93.30
2017-09-15T05:18:53.478Z,93.30
2017-09-15T05:21:19.817Z,92.30
2017-09-15T05:23:46.166Z,92.70
2017-09-15T05:26:12.516Z,92.40
2017-09-15T05:28:39.174Z,92.40
2017-09-15T05:31:06.276Z,90.30
2017-09-15T05:33:33.364Z,89.80
2017-09-15T05:35:59.696Z,89.80
2017-09-15T05:38:26.767Z,91.30
2017-09-15T05:40:53.164Z,91.30
2017-09-15T05:43:19.523Z,92.10
2017-09-15T05:45:46.236Z,92.80
2017-09-15T05:48:12.692Z,93.30
2017-09-15T05:50:39.039Z,93.70
2017-09-15T05:53:05.415Z,93.90
2017-09-15T05:55:31.829Z,93.60
2017-09-15T05:57:58.217Z,93.90
2017-09-15T06:00:24.557Z,94.00
2017-09-15T06:02:51.246Z,94.20
2017-09-15T06:05:17.601Z,94.40
2017-09-15T06:07:51.280Z,94.50
2017-09-15T06:10:17.615Z,94.30
2017-09-15T06:12:44.727Z,94.50
2017-09-15T06:15:11.114Z,94.10
2017-09-15T06:17:37.467Z,94.20
2017-09-15T06:20:03.854Z,94.60
2017-09-15T06:22:30.224Z,94.90
2017-09-15T06:24:56.572Z,94.90
2017-09-15T06:27:22.923Z,94.80
2017-09-15T06:29:49.284Z,94.90
2017-09-15T06:32:16.378Z,95.00
2017-09-15T06:34:42.696Z,94.90
2017-09-15T06:37:09.041Z,95.00
2017-09-15T06:39:35.447Z,94.70
2017-09-15T06:42:01.812Z,94.70
2017-09-15T06:44:28.188Z,94.40
2017-09-15T06:46:54.559Z,94.30
2017-09-15T06:49:20.947Z,94.10
2017-09-15T06:51:47.595Z,93.70
2017-09-15T06:54:13.947Z,93.40
2017-09-15T06:56:40.284Z,92.70
2017-09-15T06:59:06.677Z,92.60
2017-09-15T07:01:33.021Z,92.10
2017-09-15T07:03:59.424Z,91.80
2017-09-15T07:06:25.777Z,91.90
2017-09-15T07:08:52.146Z,91.00
2017-09-15T07:11:18.530Z,90.60
2017-09-15T07:13:45.231Z,90.50
2017-09-15T07:16:11.601Z,90.40
2017-09-15T07:18:37.971Z,90.00
2017-09-15T07:21:04.319Z,89.20
2017-09-15T07:23:30.664Z,89.30
2017-09-15T07:25:57.806Z,87.20
2017-09-15T07:28:24.918Z,85.80
2017-09-15T07:30:51.330Z,85.70
2017-09-15T07:33:17.685Z,84.30
2017-09-15T07:35:44.068Z,83.90
2017-09-15T07:38:10.456Z,84.00
2017-09-15T07:40:37.894Z,84.10
2017-09-15T07:43:04.236Z,84.00
2017-09-15T07:45:30.590Z,84.60
2017-09-15T07:47:57.721Z,83.80
2017-09-15T07:50:24.060Z,83.80
2017-09-15T07:52:51.156Z,83.20
2017-09-15T07:55:17.527Z,82.40
2017-09-15T07:57:43.901Z,81.70
2017-09-15T08:00:10.253Z,81.50
2017-09-15T08:02:36.930Z,81.40
2017-09-15T08:05:03.322Z,81.30
2017-09-15T08:07:29.752Z,81.00
2017-09-15T08:09:56.140Z,80.60
2017-09-15T08:12:23.235Z,79.50
2017-09-15T08:14:49.605Z,79.60
2017-09-15T08:17:16.724Z,79.00
2017-09-15T08:19:43.341Z,79.00
2017-09-15T08:22:09.707Z,79.30
2017-09-15T08:24:36.070Z,78.30
2017-09-15T08:27:02.473Z,77.90
2017-09-15T08:29:29.584Z,76.70
2017-09-15T08:31:55.968Z,76.60
2017-09-15T08:34:22.299Z,76.90
2017-09-15T08:36:48.993Z,76.90
2017-09-15T08:39:16.124Z,76.30
2017-09-15T08:41:42.490Z,76.30
2017-09-15T08:44:09.626Z,75.40
2017-09-15T08:46:36.009Z,75.20
2017-09-15T08:49:03.173Z,74.20
2017-09-15T08:51:29.572Z,74.20
2017-09-15T08:53:55.937Z,73.50
2017-09-15T08:56:22.292Z,71.90
2017-09-15T08:58:48.679Z,71.00
2017-09-15T09:01:15.101Z,71.50
2017-09-15T09:03:41.803Z,71.30
2017-09-15T09:06:08.136Z,70.90
2017-09-15T09:08:34.509Z,71.70
2017-09-15T09:11:00.918Z,70.60
2017-09-15T09:13:28.034Z,69.20
2017-09-15T09:15:54.426Z,69.20
2017-09-15T09:18:20.817Z,70.00
2017-09-15T09:20:47.921Z,68.30
2017-09-15T09:23:14.268Z,68.30
2017-09-15T09:25:40.997Z,67.50
2017-09-15T09:28:07.342Z,67.00
2017-09-15T09:30:33.721Z,65.10
2017-09-15T09:33:00.136Z,65.40
2017-09-15T09:35:26.475Z,65.20
2017-09-15T09:37:52.833Z,64.80
2017-09-15T09:40:19.971Z,65.60
2017-09-15T09:42:46.321Z,65.50
2017-09-15T09:45:12.670Z,66.70
2017-09-15T09:47:39.804Z,66.00
2017-09-15T09:50:06.272Z,65.70
2017-09-15T09:52:32.978Z,64.60
2017-09-15T09:54:59.335Z,63.80
2017-09-15T09:57:25.678Z,63.40
2017-09-15T09:59:52.087Z,63.00
2017-09-15T10:02:19.240Z,63.90
2017-09-15T10:04:46.373Z,63.30
2017-09-15T10:07:13.488Z,63.30
2017-09-15T10:09:39.866Z,63.30
2017-09-15T10:12:07.001Z,62.20
2017-09-15T10:14:34.437Z,61.40
2017-09-15T10:17:00.800Z,61.40
2017-09-15T10:19:27.145Z,63.10
2017-09-15T10:21:53.507Z,64.40
2017-09-15T10:24:19.854Z,64.90
2017-09-15T10:26:46.221Z,64.20
2017-09-15T10:29:13.301Z,62.90
2017-09-15T10:31:39.639Z,62.80
2017-09-15T10:34:05.969Z,61.20
2017-09-15T10:36:32.656Z,59.40
2017-09-15T10:38:59.048Z,59.10
2017-09-15T10:41:32.425Z,59.20
2017-09-15T10:43:58.795Z,57.90
2017-09-15T10:46:25.138Z,56.60
2017-09-15T10:48:52.291Z,55.60
2017-09-15T10:51:19.364Z,54.90
2017-09-15T10:53:46.041Z,54.90
2017-09-15T10:56:12.429Z,55.40
2017-09-15T10:58:44.964Z,55.30
2017-09-15T11:01:12.133Z,53.40
2017-09-15T11:03:38.494Z,53.40
2017-09-15T11:06:04.894Z,52.40
2017-09-15T11:08:31.257Z,51.30
2017-09-15T11:10:57.625Z,50.30
2017-09-15T11:13:23.958Z,50.50
2017-09-15T11:15:51.114Z,48.80
2017-09-15T11:18:17.499Z,48.70
2017-09-15T11:20:44.385Z,47.60
2017-09-15T11:23:10.737Z,47.40
2017-09-15T11:25:37.150Z,47.20
2017-09-15T11:28:04.254Z,47.60
2017-09-15T11:30:30.588Z,47.60
2017-09-15T11:32:56.989Z,46.70
2017-09-15T11:35:23.351Z,46.40
2017-09-15T11:37:50.097Z,45.10
2017-09-15T11:40:16.474Z,44.30
2017-09-15T11:42:42.815Z,44.10
2017-09-15T11:45:09.185Z,42.90
2017-09-15T11:47:35.533Z,42.80
2017-09-15T11:50:02.691Z,42.60
2017-09-15T11:52:29.038Z,42.60
2017-09-15T11:54:55.431Z,42.60
2017-09-15T11:57:21.783Z,41.80
2017-09-15T11:59:48.181Z,42.40
2017-09-15T12:02:14.533Z,40.40
2017-09-15T12:04:41.624Z,40.40
2017-09-15T12:07:08.295Z,40.40
2017-09-15T12:09:34.717Z,40.90
2017-09-15T12:12:01.057Z,41.40
2017-09-15T12:14:27.422Z,41.40
2017-09-15T12:16:53.783Z,39.30
2017-09-15T12:19:20.173Z,38.40
2017-09-15T12:21:47.253Z,35.50
2017-09-15T12:24:13.956Z,35.50
2017-09-15T12:26:40.300Z,36.00
2017-09-15T12:29:06.682Z,36.80
2017-09-15T12:31:33.052Z,37.20
2017-09-15T12:33:59.404Z,36.50
2017-09-15T12:36:25.750Z,36.90
2017-09-15T12:38:52.077Z,36.20
2017-09-15T12:41:18.731Z,35.50
2017-09-15T12:43:45.069Z,36.80
2017-09-15T12:46:12.219Z,38.50
2017-09-15T12:48:39.406Z,39.30
2017-09-15T12:51:05.760Z,39.30
2017-09-15T12:53:32.159Z,39.60
2017-09-15T12:55:58.539Z,40.10
2017-09-15T12:58:25.300Z,41.00
2017-09-15T13:00:51.664Z,41.90
2017-09-15T13:03:18.051Z,42.70
2017-09-15T13:05:44.417Z,43.20
2017-09-15T13:08:10.773Z,44.50
2017-09-15T13:10:37.128Z,45.10
2017-09-15T13:13:04.758Z,45.50
2017-09-15T13:15:31.116Z,46.50
2017-09-15T13:17:57.483Z,44.60
2017-09-15T13:20:24.633Z,42.40
2017-09-15T13:22:51.765Z,41.80
2017-09-15T13:25:18.427Z,41.80
2017-09-15T13:27:45.505Z,41.80
2017-09-15T13:30:11.866Z,41.90
2017-09-15T13:32:38.243Z,41.20
2017-09-15T13:35:04.600Z,41.70
2017-09-15T13:37:30.980Z,42.50
2017-09-15T13:39:58.069Z,43.90
2017-09-15T13:42:24.437Z,43.90
2017-09-15T13:44:50.811Z,44.70
2017-09-15T13:47:17.138Z,45.20
2017-09-15T13:49:43.576Z,45.90
2017-09-15T13:52:09.934Z,46.30
2017-09-15T13:54:36.329Z,47.20
2017-09-15T13:57:02.697Z,47.20
2017-09-15T13:59:29.064Z,46.70
2017-09-15T14:01:56.166Z,47.80
2017-09-15T14:04:22.837Z,47.80
2017-09-15T14:06:49.288Z,48.40
2017-09-15T14:09:15.654Z,48.50
2017-09-15T14:11:42.046Z,49.10
2017-09-15T14:14:08.488Z,46.90
2017-09-15T14:16:34.874Z,45.90
2017-09-15T14:19:01.242Z,45.50
2017-09-15T14:21:27.605Z,42.90
2017-09-15T14:23:53.997Z,42.30
2017-09-15T14:26:21.449Z,40.70
2017-09-15T14:28:48.543Z,40.00
2017-09-15T14:31:15.659Z,40.80
2017-09-15T14:33:41.999Z,40.80
2017-09-15T14:36:08.359Z,42.00
2017-09-15T14:38:34.786Z,42.90
2017-09-15T14:41:01.211Z,42.90
2017-09-15T14:43:27.583Z,44.00
2017-09-15T14:45:54.681Z,43.50
2017-09-15T14:48:21.453Z,43.50
2017-09-15T14:50:48.570Z,41.50
2017-09-15T14:53:14.932Z,41.40
2017-09-15T14:55:41.291Z,40.60
2017-09-15T14:58:08.386Z,39.90
2017-09-15T15:00:34.796Z,39.80
2017-09-15T15:03:01.162Z,39.90
2017-09-15T15:05:27.567Z,39.80
2017-09-15T15:07:53.994Z,39.80
2017-09-15T15:10:20.654Z,40.40
2017-09-15T15:12:47.058Z,42.20
2017-09-15T15:15:14.160Z,45.10
2017-09-15T15:17:41.284Z,47.00
2017-09-15T15:20:07.701Z,46.90
2017-09-15T15:22:34.145Z,47.40
2017-09-15T15:25:01.327Z,50.90
2017-09-15T15:27:28.444Z,51.60
2017-09-15T15:29:54.839Z,51.60
2017-09-15T15:32:21.471Z,52.30
2017-09-15T15:34:47.867Z,52.90
2017-09-15T15:37:14.240Z,53.80
2017-09-15T15:39:40.582Z,53.90
2017-09-15T15:42:06.929Z,53.50
2017-09-15T15:44:33.280Z,54.00
2017-09-15T15:47:00.374Z,54.80
2017-09-15T15:49:26.759Z,54.80
2017-09-15T15:51:53.857Z,57.00
2017-09-15T15:54:20.557Z,57.40
2017-09-15T15:56:46.915Z,58.10
2017-09-15T15:59:13.246Z,59.10
2017-09-15T16:01:39.602Z,58.80
2017-09-15T16:04:05.994Z,58.20
2017-09-15T16:06:32.367Z,57.60
2017-09-15T16:08:58.710Z,57.80
2017-09-15T16:11:25.851Z,58.40
2017-09-15T16:13:52.948Z,58.90
2017-09-15T16:16:19.688Z,58.90
2017-09-15T16:18:46.106Z,59.90
2017-09-15T16:21:12.456Z,60.70
2017-09-15T16:23:38.825Z,60.80
2017-09-15T16:26:05.329Z,60.10
2017-09-15T16:28:31.734Z,60.20
2017-09-15T16:30:58.144Z,61.00
2017-09-15T16:33:24.876Z,62.40
2017-09-15T16:35:52.003Z,63.70
2017-09-15T16:38:24.766Z,63.70
2017-09-15T16:40:57.080Z,65.20
2017-09-15T16:43:29.711Z,65.20
2017-09-15T16:46:02.135Z,66.50
2017-09-15T16:48:34.863Z,66.40
2017-09-15T16:51:01.287Z,66.00
2017-09-15T16:53:27.666Z,65.70
2017-09-15T16:55:54.054Z,66.30
2017-09-15T16:58:20.394Z,67.50
2017-09-15T17:00:46.807Z,68.70
2017-09-15T17:03:13.223Z,70.00
2017-09-15T17:05:39.587Z,70.60
2017-09-15T17:08:06.072Z,71.10
2017-09-15T17:10:32.489Z,71.70
2017-09-15T17:12:58.858Z,72.30
2017-09-15T17:15:25.251Z,73.10
2017-09-15T17:17:51.943Z,73.90
2017-09-15T17:20:19.085Z,75.20
2017-09-15T17:22:45.474Z,75.20
2017-09-15T17:25:11.826Z,75.60
2017-09-15T17:27:38.195Z,75.80
2017-09-15T17:30:05.288Z,77.10
2017-09-15T17:32:31.749Z,77.10
2017-09-15T17:34:58.426Z,77.90
2017-09-15T17:37:24.845Z,78.80
2017-09-15T17:39:51.974Z,80.40
2017-09-15T17:42:18.344Z,80.40
2017-09-15T17:44:44.735Z,80.60
2017-09-15T17:47:11.235Z,81.20
2017-09-15T17:49:37.634Z,81.60
2017-09-15T17:52:04.050Z,81.90
2017-09-15T17:54:30.439Z,82.60
2017-09-15T17:56:57.195Z,83.40
2017-09-15T17:59:23.589Z,83.70
2017-09-15T18:01:49.999Z,84.20
2017-09-15T18:04:16.370Z,84.20
2017-09-15T18:06:42.776Z,84.00
2017-09-15T18:09:09.197Z,83.50
2017-09-15T18:11:35.610Z,83.60
2017-09-15T18:14:02.312Z,83.80
2017-09-15T18:16:28.704Z,83.90
2017-09-15T18:18:55.061Z,83.90
2017-09-15T18:21:21.488Z,84.20
2017-09-15T18:23:47.873Z,84.80
2017-09-15T18:26:14.335Z,85.90
2017-09-15T18:28:40.749Z,87.30
2017-09-15T18:31:07.546Z,87.20
2017-09-15T18:33:34.680Z,88.00
2017-09-15T18:36:01.097Z,88.00
2017-09-15T18:38:27.535Z,88.20
2017-09-15T18:40:53.934Z,88.80
2017-09-15T18:43:20.389Z,89.30
2017-09-15T18:45:46.801Z,90.00
2017-09-15T18:48:13.557Z,90.20
2017-09-15T18:50:40.818Z,90.30
2017-09-15T18:53:07.258Z,90.40
2017-09-15T18:55:33.711Z,90.70
2017-09-15T18:58:00.964Z,90.90
2017-09-15T19:00:28.478Z,90.90
2017-09-15T19:02:54.899Z,91.10
2017-09-15T19:05:21.352Z,91.50
2017-09-15T19:07:47.809Z,91.40
2017-09-15T19:10:15.358Z,91.20
2017-09-15T19:12:42.493Z,91.40
2017-09-15T19:15:08.898Z,91.00
2017-09-15T19:17:35.410Z,91.30
2017-09-15T19:20:01.817Z,91.40
2017-09-15T19:22:28.271Z,91.60
2017-09-15T19:24:54.656Z,91.60
2017-09-15T19:27:21.515Z,91.70
2017-09-15T19:29:48.693Z,91.80
2017-09-15T19:32:15.116Z,91.80
2017-09-15T19:34:41.551Z,91.80
2017-09-15T19:37:08.025Z,91.90
2017-09-15T19:39:34.685Z,92.10
2017-09-15T19:42:01.849Z,92.10
2017-09-15T19:44:28.301Z,92.10
2017-09-15T19:46:54.740Z,92.10
2017-09-15T19:49:21.166Z,92.10
2017-09-15T19:51:47.958Z,92.10
2017-09-15T19:54:14.375Z,92.20
2017-09-15T19:56:40.802Z,92.20
2017-09-15T19:59:08.024Z,92.50
2017-09-15T20:01:34.471Z,92.50
2017-09-15T20:04:00.964Z,92.60
2017-09-15T20:06:27.404Z,92.80
2017-09-15T20:08:54.106Z,93.00
2017-09-15T20:11:20.603Z,93.20
2017-09-15T20:13:47.033Z,93.40
2017-09-15T20:16:13.545Z,93.50
2017-09-15T20:18:39.966Z,93.60
2017-09-15T20:21:06.441Z,93.60
2017-09-15T20:23:32.845Z,93.60
2017-09-15T20:25:59.276Z,93.70
2017-09-15T20:28:25.727Z,93.80
2017-09-15T20:30:52.517Z,93.80
2017-09-15T20:33:18.917Z,93.80
2017-09-15T20:35:45.369Z,93.80
2017-09-15T20:38:12.551Z,93.90
2017-09-15T20:40:38.944Z,93.90
2017-09-15T20:43:06.062Z,93.90
2017-09-15T20:45:32.450Z,93.80
2017-09-15T20:47:58.901Z,93.90
2017-09-15T20:50:25.308Z,93.90
2017-09-15T20:52:52.005Z,94.00
2017-09-15T20:55:18.372Z,93.90
2017-09-15T20:57:44.765Z,94.00
2017-09-15T21:00:11.206Z,94.10
2017-09-15T21:02:37.579Z,94.10
2017-09-15T21:05:03.971Z,94.10
2017-09-15T21:07:30.374Z,94.10
2017-09-15T21:09:56.794Z,94.20
2017-09-15T21:12:23.161Z,94.00
2017-09-15T21:14:50.611Z,94.10
2017-09-15T21:17:17.008Z,94.10
2017-09-15T21:19:43.365Z,94.20
2017-09-15T21:22:09.745Z,94.20
2017-09-15T21:24:36.123Z,94.30
2017-09-15T21:27:02.513Z,94.40
2017-09-15T21:29:29.640Z,94.50
2017-09-15T21:31:56.026Z,94.50
2017-09-15T21:34:23.139Z,94.60
2017-09-15T21:36:49.833Z,94.60
2017-09-15T21:39:16.967Z,94.70
2017-09-15T21:41:43.324Z,94.70
2017-09-15T21:44:10.436Z,94.70
2017-09-15T21:46:36.786Z,94.60
2017-09-15T21:49:03.995Z,94.90
2017-09-15T21:51:30.379Z,94.70
2017-09-15T21:53:56.780Z,94.70
2017-09-15T21:56:23.192Z,94.80
2017-09-15T21:58:49.550Z,94.90
2017-09-15T22:01:16.201Z,94.90
2017-09-15T22:03:49.465Z,94.80
2017-09-15T22:06:16.216Z,94.80
2017-09-15T22:08:43.330Z,94.60
2017-09-15T22:11:09.674Z,94.60
2017-09-15T22:13:36.047Z,94.60
2017-09-15T22:16:02.456Z,94.60
2017-09-15T22:18:29.624Z,94.70
2017-09-15T22:20:56.008Z,94.60
2017-09-15T22:23:24.230Z,94.70
2017-09-15T22:25:50.609Z,94.70
2017-09-15T22:28:17.010Z,94.70
2017-09-15T22:30:43.382Z,94.90
2017-09-15T22:33:09.753Z,94.90
2017-09-15T22:35:36.102Z,94.90
2017-09-15T22:38:02.482Z,95.00
2017-09-15T22:40:29.220Z,95.10
2017-09-15T22:42:55.557Z,95.30
2017-09-15T22:45:22.660Z,95.20
2017-09-15T22:47:49.055Z,95.10
2017-09-15T22:50:15.499Z,95.10
2017-09-15T22:52:41.880Z,95.10
2017-09-15T22:55:08.257Z,95.20
2017-09-15T22:57:34.655Z,95.20
2017-09-15T23:00:01.018Z,95.30
2017-09-15T23:02:28.512Z,95.10
2017-09-15T23:04:54.858Z,95.40
2017-09-15T23:07:21.230Z,95.50
2017-09-15T23:09:47.634Z,95.50
2017-09-15T23:12:14.748Z,95.50
2017-09-15T23:14:41.121Z,95.50
2017-09-15T23:17:07.533Z,95.60
2017-09-15T23:19:34.975Z,95.60
2017-09-15T23:22:02.124Z,95.50
2017-09-15T23:24:28.488Z,95.70
2017-09-15T23:26:54.834Z,95.70
2017-09-15T23:29:21.196Z,95.60
2017-09-15T23:31:47.566Z,95.60
2017-09-15T23:34:14.659Z,95.90
2017-09-15T23:36:41.367Z,95.60
2017-09-15T23:39:07.744Z,95.60
2017-09-15T23:41:34.159Z,95.60
2017-09-15T23:44:01.567Z,95.60
2017-09-15T23:46:28.656Z,96.00
2017-09-15T23:48:55.050Z,95.60
2017-09-15T23:51:21.408Z,95.70
2017-09-15T23:53:47.856Z,95.80
2017-09-15T23:56:14.191Z,95.70
2017-09-15T23:58:40.950Z,95.70
